createdAt,value
2018-09-02T00:00:38.512Z,96.00
2018-09-02T00:03:07.562Z,95.90
2018-09-02T00:05:36.551Z,95.80
2018-09-02T00:08:05.499Z,96.10
2018-09-02T00:10:34.800Z,95.30
2018-09-02T00:13:03.818Z,95.30
2018-09-02T00:15:32.911Z,95.20
2018-09-02T00:18:02.390Z,95.70
2018-09-02T00:20:31.768Z,95.90
2018-09-02T00:23:00.983Z,95.70
2018-09-02T00:25:30.399Z,95.90
2018-09-02T00:27:59.652Z,95.90
2018-09-02T00:30:28.928Z,96.40
2018-09-02T00:32:57.926Z,96.20
2018-09-02T00:35:26.839Z,96.10
2018-09-02T00:37:56.106Z,95.50
2018-09-02T00:40:25.554Z,95.00
2018-09-02T00:42:54.824Z,95.10
2018-09-02T00:45:24.016Z,95.00
2018-09-02T00:47:53.091Z,94.90
2018-09-02T00:50:22.343Z,95.30
2018-09-02T00:52:51.411Z,95.30
2018-09-02T00:55:20.419Z,95.80
2018-09-02T00:57:49.326Z,95.60
2018-09-02T01:00:18.534Z,95.10
2018-09-02T01:02:48.008Z,95.10
2018-09-02T01:05:16.960Z,95.60
2018-09-02T01:07:46.050Z,95.60
2018-09-02T01:10:15.862Z,95.70
2018-09-02T01:12:45.339Z,95.90
2018-09-02T01:15:14.477Z,96.10
2018-09-02T01:17:43.547Z,95.70
2018-09-02T01:20:12.814Z,95.30
2018-09-02T01:22:41.712Z,95.30
2018-09-02T01:25:11.154Z,95.40
2018-09-02T01:27:40.340Z,95.40
2018-09-02T01:30:09.412Z,95.60
2018-09-02T01:32:38.664Z,95.80
2018-09-02T01:35:07.767Z,96.00
2018-09-02T01:37:36.924Z,96.80
2018-09-02T01:40:05.994Z,97.50
2018-09-02T01:42:34.903Z,97.50
2018-09-02T01:45:04.256Z,98.10
2018-09-02T01:47:33.408Z,98.10
2018-09-02T01:50:02.498Z,98.40
2018-09-02T01:52:31.828Z,98.70
2018-09-02T01:55:00.843Z,98.60
2018-09-02T01:57:30.205Z,98.80
2018-09-02T01:59:59.290Z,99.90
2018-09-02T02:02:28.804Z,99.30
2018-09-02T02:04:58.026Z,99.50
2018-09-02T02:07:27.022Z,99.30
2018-09-02T02:09:56.395Z,99.70
2018-09-02T02:12:25.591Z,99.90
2018-09-02T02:14:54.684Z,99.90
2018-09-02T02:17:23.793Z,99.90
2018-09-02T02:19:53.091Z,99.90
2018-09-02T02:22:22.178Z,99.90
2018-09-02T02:24:51.284Z,99.90
2018-09-02T02:27:20.276Z,99.90
2018-09-02T02:29:49.461Z,99.90
2018-09-02T02:32:18.934Z,99.90
2018-09-02T02:34:48.066Z,99.90
2018-09-02T02:37:17.063Z,99.80
2018-09-02T02:39:46.159Z,99.50
2018-09-02T02:42:15.967Z,99.60
2018-09-02T02:44:45.082Z,99.40
2018-09-02T02:47:14.412Z,99.70
2018-09-02T02:49:43.740Z,99.90
2018-09-02T02:52:12.862Z,99.90
2018-09-02T02:54:41.924Z,99.80
2018-09-02T02:57:10.991Z,99.90
2018-09-02T02:59:40.274Z,99.70
2018-09-02T03:02:09.536Z,99.50
2018-09-02T03:04:41.220Z,99.90
2018-09-02T03:07:10.934Z,99.90
2018-09-02T03:09:39.996Z,99.90
2018-09-02T03:12:09.916Z,99.90
2018-09-02T03:14:39.055Z,99.90
2018-09-02T03:17:08.408Z,99.90
2018-09-02T03:19:37.319Z,99.90
2018-09-02T03:22:06.840Z,99.90
2018-09-02T03:24:36.056Z,99.90
2018-09-02T03:27:05.314Z,99.90
2018-09-02T03:29:34.646Z,99.90
2018-09-02T03:32:03.798Z,99.90
2018-09-02T03:34:32.820Z,99.90
2018-09-02T03:37:02.007Z,99.90
2018-09-02T03:39:31.371Z,99.90
2018-09-02T03:42:00.728Z,99.90
2018-09-02T03:44:30.195Z,99.90
2018-09-02T03:46:59.319Z,99.90
2018-09-02T03:49:28.643Z,99.90
2018-09-02T03:51:58.092Z,99.90
2018-09-02T03:54:27.275Z,99.90
2018-09-02T03:56:56.333Z,99.90
2018-09-02T03:59:25.464Z,99.90
2018-09-02T04:01:54.512Z,99.90
2018-09-02T04:04:23.641Z,99.90
2018-09-02T04:06:52.895Z,99.90
2018-09-02T04:09:22.194Z,99.90
2018-09-02T04:11:51.226Z,99.90
2018-09-02T04:14:20.327Z,99.90
2018-09-02T04:16:49.447Z,99.90
2018-09-02T04:19:18.707Z,99.90
2018-09-02T04:21:47.835Z,99.90
2018-09-02T04:24:17.148Z,99.90
2018-09-02T04:26:46.596Z,99.90
2018-09-02T04:29:16.064Z,99.90
2018-09-02T04:31:45.540Z,99.90
2018-09-02T04:34:15.780Z,99.90
2018-09-02T04:36:44.917Z,99.90
2018-09-02T04:39:14.243Z,99.90
2018-09-02T04:41:43.421Z,99.90
2018-09-02T04:44:12.487Z,99.90
2018-09-02T04:46:41.747Z,99.90
2018-09-02T04:49:10.652Z,99.90
2018-09-02T04:51:39.712Z,99.90
2018-09-02T04:54:09.336Z,99.90
2018-09-02T04:56:38.551Z,99.90
2018-09-02T04:59:07.690Z,99.90
2018-09-02T05:01:36.804Z,99.90
2018-09-02T05:04:05.942Z,99.90
2018-09-02T05:06:35.254Z,99.90
2018-09-02T05:09:05.396Z,99.90
2018-09-02T05:11:34.443Z,99.90
2018-09-02T05:14:03.734Z,99.90
2018-09-02T05:16:32.634Z,99.90
2018-09-02T05:19:01.679Z,99.90
2018-09-02T05:21:30.695Z,99.90
2018-09-02T05:23:59.934Z,99.90
2018-09-02T05:26:29.018Z,99.90
2018-09-02T05:28:58.339Z,99.90
2018-09-02T05:31:27.294Z,99.90
2018-09-02T05:33:56.564Z,99.90
2018-09-02T05:36:25.597Z,99.90
2018-09-02T05:38:54.814Z,99.90
2018-09-02T05:41:24.090Z,99.90
2018-09-02T05:43:53.563Z,99.90
2018-09-02T05:46:22.815Z,99.90
2018-09-02T05:48:51.714Z,99.90
2018-09-02T05:51:21.166Z,99.90
2018-09-02T05:53:50.301Z,99.90
2018-09-02T05:56:19.400Z,99.90
2018-09-02T05:58:48.471Z,99.90
2018-09-02T06:01:17.987Z,99.90
2018-09-02T06:03:47.388Z,99.90
2018-09-02T06:06:17.016Z,99.90
2018-09-02T06:08:46.273Z,99.90
2018-09-02T06:11:15.235Z,99.90
2018-09-02T06:13:44.323Z,99.90
2018-09-02T06:16:13.586Z,99.90
2018-09-02T06:18:42.846Z,99.90
2018-09-02T06:21:12.365Z,99.90
2018-09-02T06:23:41.731Z,99.90
2018-09-02T06:26:11.254Z,99.90
2018-09-02T06:28:40.263Z,99.90
2018-09-02T06:31:09.191Z,99.90
2018-09-02T06:33:38.485Z,99.90
2018-09-02T06:36:07.559Z,99.90
2018-09-02T06:38:36.833Z,99.90
2018-09-02T06:41:06.332Z,99.90
2018-09-02T06:43:35.660Z,99.90
2018-09-02T06:46:05.277Z,99.90
2018-09-02T06:48:34.418Z,99.90
2018-09-02T06:51:03.663Z,99.90
2018-09-02T06:53:33.397Z,99.90
2018-09-02T06:56:02.921Z,99.90
2018-09-02T06:58:31.955Z,99.90
2018-09-02T07:01:01.291Z,99.90
2018-09-02T07:03:30.567Z,99.90
2018-09-02T07:06:00.348Z,99.90
2018-09-02T07:08:29.434Z,99.90
2018-09-02T07:10:58.608Z,99.90
2018-09-02T07:13:27.852Z,99.90
2018-09-02T07:15:57.030Z,99.90
2018-09-02T07:18:25.923Z,99.90
2018-09-02T07:20:54.961Z,99.90
2018-09-02T07:23:24.247Z,99.90
2018-09-02T07:25:53.343Z,99.90
2018-09-02T07:28:22.390Z,99.90
2018-09-02T07:30:51.584Z,99.90
2018-09-02T07:33:20.689Z,99.90
2018-09-02T07:35:49.950Z,99.90
2018-09-02T07:38:19.047Z,99.90
2018-09-02T07:40:49.151Z,99.90
2018-09-02T07:43:18.246Z,99.90
2018-09-02T07:45:47.734Z,99.90
2018-09-02T07:48:17.234Z,99.90
2018-09-02T07:50:46.718Z,99.90
2018-09-02T07:53:15.880Z,99.90
2018-09-02T07:55:44.835Z,99.90
2018-09-02T07:58:14.315Z,99.90
2018-09-02T08:00:43.550Z,99.90
2018-09-02T08:03:12.584Z,99.90
2018-09-02T08:05:42.040Z,99.90
2018-09-02T08:08:11.327Z,99.90
2018-09-02T08:10:40.444Z,99.90
2018-09-02T08:13:09.419Z,99.90
2018-09-02T08:15:38.719Z,99.90
2018-09-02T08:18:07.766Z,99.30
2018-09-02T08:20:37.007Z,97.70
2018-09-02T08:23:06.323Z,94.50
2018-09-02T08:25:35.343Z,92.30
2018-09-02T08:28:04.323Z,90.90
2018-09-02T08:30:33.343Z,85.90
2018-09-02T08:33:02.537Z,82.20
2018-09-02T08:35:32.019Z,77.60
2018-09-02T08:38:01.765Z,67.30
2018-09-02T08:40:30.903Z,55.40
2018-09-02T08:43:00.047Z,46.20
2018-09-02T08:45:29.101Z,38.90
2018-09-02T08:47:58.424Z,32.70
2018-09-02T08:50:27.771Z,28.90
2018-09-02T08:52:57.315Z,27.20
2018-09-02T08:55:26.701Z,25.90
2018-09-02T08:57:55.961Z,23.90
2018-09-02T09:00:25.063Z,23.30
2018-09-02T09:02:54.607Z,22.00
2018-09-02T09:05:24.099Z,20.50
2018-09-02T09:07:53.481Z,19.80
2018-09-02T09:10:22.406Z,19.00
2018-09-02T09:12:51.735Z,19.10
2018-09-02T09:15:22.202Z,18.40
2018-09-02T09:17:51.486Z,18.70
2018-09-02T09:20:20.697Z,18.20
2018-09-02T09:22:50.091Z,17.80
2018-09-02T09:25:19.143Z,17.40
2018-09-02T09:27:48.267Z,17.60
2018-09-02T09:30:17.424Z,17.50
2018-09-02T09:32:46.556Z,16.20
2018-09-02T09:35:16.013Z,16.40
2018-09-02T09:37:45.056Z,16.60
2018-09-02T09:40:13.995Z,15.90
2018-09-02T09:42:43.102Z,15.70
2018-09-02T09:45:12.374Z,15.90
2018-09-02T09:47:41.272Z,15.90
2018-09-02T09:50:10.316Z,15.40
2018-09-02T09:52:39.358Z,16.00
2018-09-02T09:55:08.556Z,16.00
2018-09-02T09:57:37.778Z,15.20
2018-09-02T10:00:06.934Z,15.10
2018-09-02T10:02:35.804Z,15.10
2018-09-02T10:05:04.935Z,15.10
2018-09-02T10:07:33.949Z,14.90
2018-09-02T10:10:03.239Z,15.00
2018-09-02T10:12:32.767Z,14.90
2018-09-02T10:15:01.866Z,15.30
2018-09-02T10:17:31.019Z,15.50
2018-09-02T10:20:00.164Z,14.70
2018-09-02T10:22:29.873Z,15.20
2018-09-02T10:24:58.918Z,14.70
2018-09-02T10:27:28.190Z,15.00
2018-09-02T10:29:57.224Z,14.80
2018-09-02T10:32:26.593Z,15.20
2018-09-02T10:34:55.662Z,15.30
2018-09-02T10:37:25.191Z,15.50
2018-09-02T10:39:54.468Z,15.40
2018-09-02T10:42:23.674Z,15.50
2018-09-02T10:44:53.068Z,15.40
2018-09-02T10:47:22.085Z,15.90
2018-09-02T10:49:51.220Z,15.80
2018-09-02T10:52:20.662Z,16.20
2018-09-02T10:54:49.726Z,16.50
2018-09-02T10:57:19.019Z,16.30
2018-09-02T10:59:47.949Z,15.80
2018-09-02T11:02:17.047Z,16.90
2018-09-02T11:04:46.272Z,16.80
2018-09-02T11:07:15.524Z,16.70
2018-09-02T11:09:44.775Z,17.00
2018-09-02T11:12:14.014Z,17.40
2018-09-02T11:14:43.242Z,17.90
2018-09-02T11:17:12.523Z,18.40
2018-09-02T11:19:41.884Z,18.00
2018-09-02T11:22:11.705Z,18.20
2018-09-02T11:24:40.662Z,19.40
2018-09-02T11:27:09.952Z,19.80
2018-09-02T11:29:39.023Z,21.00
2018-09-02T11:32:08.066Z,21.50
2018-09-02T11:34:37.451Z,20.80
2018-09-02T11:37:07.021Z,21.50
2018-09-02T11:39:36.439Z,21.60
2018-09-02T11:42:05.562Z,21.00
2018-09-02T11:44:34.691Z,21.70
2018-09-02T11:47:04.678Z,23.00
2018-09-02T11:49:34.381Z,23.70
2018-09-02T11:52:03.893Z,23.40
2018-09-02T11:54:33.147Z,25.50
2018-09-02T11:57:02.383Z,26.20
2018-09-02T11:59:31.455Z,28.30
2018-09-02T12:02:00.446Z,27.90
2018-09-02T12:04:29.623Z,29.10
2018-09-02T12:06:58.831Z,30.60
2018-09-02T12:09:27.765Z,30.70
2018-09-02T12:11:57.756Z,31.70
2018-09-02T12:14:27.055Z,31.40
2018-09-02T12:16:55.930Z,33.30
2018-09-02T12:19:25.035Z,34.10
2018-09-02T12:21:54.150Z,35.70
2018-09-02T12:24:23.255Z,35.70
2018-09-02T12:26:53.317Z,35.50
2018-09-02T12:29:22.634Z,37.30
2018-09-02T12:31:52.151Z,37.20
2018-09-02T12:34:21.110Z,38.10
2018-09-02T12:36:50.343Z,40.00
2018-09-02T12:39:19.386Z,39.80
2018-09-02T12:41:48.603Z,40.10
2018-09-02T12:44:17.703Z,39.80
2018-09-02T12:46:46.636Z,40.40
2018-09-02T12:49:15.773Z,42.80
2018-09-02T12:51:45.245Z,41.30
2018-09-02T12:54:14.728Z,41.20
2018-09-02T12:56:43.929Z,40.90
2018-09-02T12:59:13.305Z,41.20
2018-09-02T13:01:42.428Z,40.20
2018-09-02T13:04:11.544Z,42.80
2018-09-02T13:06:40.810Z,41.30
2018-09-02T13:09:09.810Z,41.00
2018-09-02T13:11:38.908Z,41.10
2018-09-02T13:14:08.147Z,41.60
2018-09-02T13:16:37.432Z,40.80
2018-09-02T13:19:06.463Z,41.30
2018-09-02T13:21:35.512Z,42.90
2018-09-02T13:24:05.034Z,42.40
2018-09-02T13:26:34.277Z,41.60
2018-09-02T13:29:03.576Z,42.00
2018-09-02T13:31:32.744Z,42.00
2018-09-02T13:34:02.293Z,41.50
2018-09-02T13:36:31.540Z,42.10
2018-09-02T13:39:00.428Z,42.00
2018-09-02T13:41:29.693Z,43.00
2018-09-02T13:43:58.808Z,42.80
2018-09-02T13:46:27.779Z,43.60
2018-09-02T13:48:56.899Z,48.30
2018-09-02T13:51:26.194Z,44.70
2018-09-02T13:53:57.379Z,42.90
2018-09-02T13:56:26.923Z,43.20
2018-09-02T13:58:56.317Z,45.10
2018-09-02T14:01:25.371Z,43.90
2018-09-02T14:03:54.423Z,42.20
2018-09-02T14:06:24.380Z,41.80
2018-09-02T14:08:53.252Z,41.20
2018-09-02T14:11:22.704Z,41.80
2018-09-02T14:13:51.899Z,42.90
2018-09-02T14:16:21.615Z,42.60
2018-09-02T14:18:51.262Z,43.10
2018-09-02T14:21:20.431Z,43.10
2018-09-02T14:23:49.726Z,44.50
2018-09-02T14:26:20.491Z,44.00
2018-09-02T14:28:49.729Z,43.80
2018-09-02T14:31:19.996Z,44.20
2018-09-02T14:33:49.467Z,44.00
2018-09-02T14:36:18.989Z,44.70
2018-09-02T14:38:48.027Z,44.50
2018-09-02T14:41:17.173Z,45.20
2018-09-02T14:43:46.641Z,44.70
2018-09-02T14:46:16.132Z,45.30
2018-09-02T14:48:46.637Z,44.70
2018-09-02T14:51:17.376Z,46.00
2018-09-02T14:53:46.747Z,46.20
2018-09-02T14:56:17.400Z,45.90
2018-09-02T14:58:49.121Z,46.70
2018-09-02T15:01:19.123Z,48.50
2018-09-02T15:03:48.201Z,51.20
2018-09-02T15:06:17.504Z,50.60
2018-09-02T15:08:47.011Z,51.50
2018-09-02T15:11:17.275Z,49.20
2018-09-02T15:13:46.550Z,48.20
2018-09-02T15:16:16.373Z,49.10
2018-09-02T15:18:47.642Z,47.80
2018-09-02T15:21:17.732Z,47.50
2018-09-02T15:23:47.947Z,48.10
2018-09-02T15:26:17.126Z,48.10
2018-09-02T15:28:46.997Z,48.30
2018-09-02T15:31:15.905Z,48.50
2018-09-02T15:33:45.244Z,47.20
2018-09-02T15:36:14.776Z,47.20
2018-09-02T15:38:43.796Z,47.30
2018-09-02T15:41:13.094Z,47.60
2018-09-02T15:43:42.882Z,47.00
2018-09-02T15:46:13.995Z,46.40
2018-09-02T15:48:43.091Z,46.70
2018-09-02T15:51:12.240Z,47.30
2018-09-02T15:53:41.153Z,46.80
2018-09-02T15:56:10.171Z,47.20
2018-09-02T15:58:39.207Z,47.10
2018-09-02T16:01:08.160Z,47.30
2018-09-02T16:03:37.213Z,47.40
2018-09-02T16:06:06.579Z,47.70
2018-09-02T16:08:35.968Z,48.10
2018-09-02T16:11:05.271Z,47.40
2018-09-02T16:13:34.391Z,48.20
2018-09-02T16:16:03.475Z,47.50
2018-09-02T16:18:35.128Z,47.70
2018-09-02T16:21:05.072Z,47.40
2018-09-02T16:23:37.073Z,47.50
2018-09-02T16:26:06.991Z,47.30
2018-09-02T16:28:36.150Z,47.80
2018-09-02T16:31:06.254Z,47.80
2018-09-02T16:33:36.210Z,47.60
2018-09-02T16:36:07.938Z,47.60
2018-09-02T16:38:38.455Z,48.00
2018-09-02T16:41:08.043Z,48.60
2018-09-02T16:43:37.359Z,48.20
2018-09-02T16:46:06.716Z,47.90
2018-09-02T16:48:36.240Z,48.60
2018-09-02T16:51:05.901Z,48.40
2018-09-02T16:53:34.915Z,49.20
2018-09-02T16:56:04.500Z,49.10
2018-09-02T16:58:34.324Z,50.70
2018-09-02T17:01:03.672Z,52.40
2018-09-02T17:03:36.569Z,51.40
2018-09-02T17:06:05.801Z,51.50
2018-09-02T17:08:35.192Z,51.80
2018-09-02T17:11:04.271Z,51.10
2018-09-02T17:13:34.420Z,51.00
2018-09-02T17:16:03.456Z,52.60
2018-09-02T17:18:33.920Z,51.30
2018-09-02T17:21:04.048Z,53.40
2018-09-02T17:23:33.379Z,52.80
2018-09-02T17:26:03.174Z,54.00
2018-09-02T17:28:34.201Z,54.20
2018-09-02T17:31:03.298Z,54.00
2018-09-02T17:33:33.435Z,54.90
2018-09-02T17:36:02.611Z,55.00
2018-09-02T17:38:32.377Z,54.60
2018-09-02T17:41:01.520Z,55.00
2018-09-02T17:43:30.768Z,56.40
2018-09-02T17:46:01.361Z,56.80
2018-09-02T17:48:30.620Z,57.20
2018-09-02T17:51:00.099Z,58.00
2018-09-02T17:53:29.790Z,59.10
2018-09-02T17:55:59.329Z,60.80
2018-09-02T17:58:29.677Z,60.70
2018-09-02T18:00:59.788Z,62.20
2018-09-02T18:03:29.312Z,61.60
2018-09-02T18:05:58.395Z,62.10
2018-09-02T18:08:28.040Z,61.10
2018-09-02T18:10:58.797Z,61.60
2018-09-02T18:13:28.146Z,62.70
2018-09-02T18:15:57.323Z,63.70
2018-09-02T18:18:26.429Z,63.40
2018-09-02T18:20:55.490Z,63.20
2018-09-02T18:23:24.956Z,61.00
2018-09-02T18:25:54.177Z,61.70
2018-09-02T18:28:27.322Z,61.20
2018-09-02T18:30:56.318Z,62.90
2018-09-02T18:33:25.471Z,64.40
2018-09-02T18:35:54.996Z,65.20
2018-09-02T18:38:24.316Z,66.70
2018-09-02T18:40:53.599Z,66.40
2018-09-02T18:43:22.625Z,66.90
2018-09-02T18:45:51.947Z,67.90
2018-09-02T18:48:23.281Z,66.40
2018-09-02T18:50:52.840Z,66.80
2018-09-02T18:53:22.126Z,67.10
2018-09-02T18:55:51.539Z,67.80
2018-09-02T18:58:20.576Z,67.90
2018-09-02T19:00:49.788Z,68.20
2018-09-02T19:03:19.113Z,66.90
2018-09-02T19:05:48.547Z,66.50
2018-09-02T19:08:18.143Z,66.50
2018-09-02T19:10:47.598Z,65.90
2018-09-02T19:13:16.785Z,67.40
2018-09-02T19:15:46.511Z,68.50
2018-09-02T19:18:15.842Z,69.00
2018-09-02T19:20:44.959Z,68.70
2018-09-02T19:23:14.051Z,69.30
2018-09-02T19:25:43.101Z,69.50
2018-09-02T19:28:12.493Z,69.50
2018-09-02T19:30:41.651Z,69.60
2018-09-02T19:33:10.780Z,69.80
2018-09-02T19:35:40.103Z,70.40
2018-09-02T19:38:09.413Z,70.40
2018-09-02T19:40:38.929Z,70.90
2018-09-02T19:43:08.339Z,70.60
2018-09-02T19:45:37.617Z,71.40
2018-09-02T19:48:06.792Z,71.70
2018-09-02T19:50:36.208Z,71.70
2018-09-02T19:53:05.509Z,71.40
2018-09-02T19:55:34.660Z,71.80
2018-09-02T19:58:04.565Z,72.10
2018-09-02T20:00:33.723Z,72.70
2018-09-02T20:03:03.061Z,72.50
2018-09-02T20:05:32.380Z,73.00
2018-09-02T20:08:01.607Z,73.30
2018-09-02T20:10:30.842Z,73.60
2018-09-02T20:13:00.283Z,73.80
2018-09-02T20:15:29.643Z,74.30
2018-09-02T20:17:58.876Z,74.60
2018-09-02T20:20:28.077Z,74.70
2018-09-02T20:22:58.172Z,74.90
2018-09-02T20:25:27.279Z,75.00
2018-09-02T20:27:56.614Z,75.40
2018-09-02T20:30:25.919Z,75.50
2018-09-02T20:32:55.140Z,75.40
2018-09-02T20:35:24.164Z,76.20
2018-09-02T20:37:53.684Z,77.00
2018-09-02T20:40:22.904Z,76.60
2018-09-02T20:42:52.420Z,77.20
2018-09-02T20:45:21.453Z,77.70
2018-09-02T20:47:50.644Z,78.30
2018-09-02T20:50:19.807Z,77.90
2018-09-02T20:52:48.899Z,78.10
2018-09-02T20:55:18.000Z,78.50
2018-09-02T20:57:47.392Z,78.60
2018-09-02T21:00:16.842Z,78.60
2018-09-02T21:02:45.901Z,78.70
2018-09-02T21:05:15.451Z,78.90
2018-09-02T21:07:45.152Z,79.30
2018-09-02T21:10:14.691Z,79.40
2018-09-02T21:12:43.723Z,79.20
2018-09-02T21:15:13.678Z,79.20
2018-09-02T21:17:43.004Z,79.30
2018-09-02T21:20:12.277Z,79.10
2018-09-02T21:22:41.532Z,78.70
2018-09-02T21:25:10.923Z,78.60
2018-09-02T21:27:40.218Z,78.90
2018-09-02T21:30:09.515Z,79.00
2018-09-02T21:32:39.030Z,79.00
2018-09-02T21:35:08.223Z,79.20
2018-09-02T21:37:37.354Z,79.50
2018-09-02T21:40:06.351Z,79.60
2018-09-02T21:42:35.773Z,79.90
2018-09-02T21:45:05.291Z,80.30
2018-09-02T21:47:34.858Z,80.60
2018-09-02T21:50:04.555Z,80.70
2018-09-02T21:52:33.883Z,80.90
2018-09-02T21:55:03.052Z,80.50
2018-09-02T21:57:32.398Z,80.50
2018-09-02T22:00:01.956Z,81.60
2018-09-02T22:02:30.969Z,82.20
2018-09-02T22:05:00.487Z,82.40
2018-09-02T22:07:29.808Z,82.30
2018-09-02T22:09:59.401Z,82.40
2018-09-02T22:12:28.710Z,82.30
2018-09-02T22:14:57.795Z,83.30
2018-09-02T22:17:27.083Z,82.70
2018-09-02T22:19:56.358Z,82.80
2018-09-02T22:22:25.430Z,83.00
2018-09-02T22:24:54.602Z,83.10
2018-09-02T22:27:23.687Z,83.50
2018-09-02T22:29:53.008Z,83.70
2018-09-02T22:32:22.197Z,84.20
2018-09-02T22:34:51.326Z,84.20
2018-09-02T22:37:20.571Z,84.50
2018-09-02T22:39:49.770Z,84.70
2018-09-02T22:42:18.927Z,86.40
2018-09-02T22:44:48.049Z,85.80
2018-09-02T22:47:17.167Z,85.70
2018-09-02T22:49:46.266Z,86.60
2018-09-02T22:52:15.348Z,86.60
2018-09-02T22:54:44.674Z,86.90
2018-09-02T22:57:13.716Z,87.40
2018-09-02T22:59:43.338Z,87.50
2018-09-02T23:02:12.384Z,88.10
2018-09-02T23:04:41.702Z,88.80
2018-09-02T23:07:11.241Z,89.50
2018-09-02T23:09:40.276Z,89.60
2018-09-02T23:12:09.477Z,90.00
2018-09-02T23:14:38.596Z,90.00
2018-09-02T23:17:07.789Z,90.10
2018-09-02T23:19:37.404Z,90.30
2018-09-02T23:22:06.742Z,90.60
2018-09-02T23:24:36.000Z,90.70
2018-09-02T23:27:05.308Z,90.80
2018-09-02T23:29:34.604Z,90.80
2018-09-02T23:32:03.600Z,90.90
2018-09-02T23:34:32.699Z,90.60
2018-09-02T23:37:01.948Z,90.70
2018-09-02T23:39:31.151Z,90.80
2018-09-02T23:42:00.182Z,90.80
2018-09-02T23:44:29.235Z,90.80
2018-09-02T23:46:58.127Z,90.90
2018-09-02T23:49:27.602Z,91.10
2018-09-02T23:51:56.967Z,91.10
2018-09-02T23:54:26.119Z,91.00
2018-09-02T23:56:55.066Z,91.10
2018-09-02T23:59:24.367Z,91.10
